createdAt,value
2017-05-22T00:00:59.580Z,10.90
2017-05-22T00:03:26.015Z,10.90
2017-05-22T00:05:53.208Z,11.00
2017-05-22T00:08:20.371Z,11.00
2017-05-22T00:10:47.520Z,11.00
2017-05-22T00:13:14.908Z,11.00
2017-05-22T00:15:42.082Z,11.00
2017-05-22T00:18:09.309Z,11.00
2017-05-22T00:20:36.772Z,11.00
2017-05-22T00:23:03.967Z,11.00
2017-05-22T00:25:31.140Z,10.90
2017-05-22T00:27:58.345Z,10.90
2017-05-22T00:30:25.503Z,10.80
2017-05-22T00:32:52.747Z,10.80
2017-05-22T00:35:19.967Z,10.70
2017-05-22T00:37:47.220Z,10.60
2017-05-22T00:40:14.451Z,10.80
2017-05-22T00:42:41.678Z,10.60
2017-05-22T00:45:08.840Z,10.60
2017-05-22T00:47:36.036Z,10.60
2017-05-22T00:50:03.228Z,10.60
2017-05-22T00:52:30.394Z,10.70
2017-05-22T00:54:57.549Z,10.70
2017-05-22T00:57:24.969Z,10.60
2017-05-22T00:59:52.168Z,10.60
2017-05-22T01:02:19.345Z,10.50
2017-05-22T01:04:46.603Z,10.50
2017-05-22T01:07:13.803Z,10.50
2017-05-22T01:09:41.049Z,10.50
2017-05-22T01:12:08.266Z,10.50
2017-05-22T01:14:35.435Z,10.60
2017-05-22T01:17:02.604Z,10.60
2017-05-22T01:19:29.923Z,10.60
2017-05-22T01:21:57.137Z,10.50
2017-05-22T01:24:24.317Z,10.60
2017-05-22T01:26:51.515Z,10.50
2017-05-22T01:29:18.712Z,10.50
2017-05-22T01:31:46.055Z,10.40
2017-05-22T01:34:13.236Z,10.40
2017-05-22T01:36:40.408Z,10.40
2017-05-22T01:39:07.591Z,10.40
2017-05-22T01:41:34.794Z,10.40
2017-05-22T01:44:02.091Z,10.40
2017-05-22T01:46:29.261Z,10.40
2017-05-22T01:48:56.468Z,10.40
2017-05-22T01:51:23.643Z,10.30
2017-05-22T01:53:50.821Z,10.20
2017-05-22T01:56:18.008Z,10.30
2017-05-22T01:58:45.151Z,10.30
2017-05-22T02:01:12.295Z,10.30
2017-05-22T02:03:39.642Z,10.20
2017-05-22T02:06:06.847Z,10.20
2017-05-22T02:08:33.987Z,10.20
2017-05-22T02:11:01.169Z,10.10
2017-05-22T02:13:28.315Z,10.10
2017-05-22T02:15:55.501Z,10.10
2017-05-22T02:18:22.700Z,10.10
2017-05-22T02:20:49.891Z,10.20
2017-05-22T02:23:17.176Z,10.20
2017-05-22T02:25:44.364Z,10.20
2017-05-22T02:28:11.564Z,10.20
2017-05-22T02:30:38.747Z,10.20
2017-05-22T02:33:06.005Z,10.20
2017-05-22T02:35:33.623Z,10.30
2017-05-22T02:38:00.784Z,10.20
2017-05-22T02:40:27.988Z,10.20
2017-05-22T02:42:55.156Z,10.20
2017-05-22T02:45:22.352Z,10.20
2017-05-22T02:47:49.551Z,10.10
2017-05-22T02:50:16.716Z,10.10
2017-05-22T02:52:43.904Z,10.10
2017-05-22T02:55:11.159Z,10.10
2017-05-22T02:57:38.283Z,10.20
2017-05-22T03:00:05.418Z,10.20
2017-05-22T03:02:32.875Z,10.10
2017-05-22T03:05:00.032Z,10.10
2017-05-22T03:07:27.176Z,10.10
2017-05-22T03:09:54.396Z,10.10
2017-05-22T03:12:21.604Z,10.10
2017-05-22T03:14:48.854Z,10.10
2017-05-22T03:17:16.058Z,10.10
2017-05-22T03:19:43.260Z,10.10
2017-05-22T03:22:10.436Z,10.10
2017-05-22T03:24:37.615Z,10.00
2017-05-22T03:27:04.821Z,10.00
2017-05-22T03:29:32.041Z,10.00
2017-05-22T03:31:59.225Z,10.10
2017-05-22T03:34:26.558Z,10.00
2017-05-22T03:36:53.711Z,10.10
2017-05-22T03:39:20.897Z,10.20
2017-05-22T03:41:48.024Z,10.20
2017-05-22T03:44:15.164Z,10.20
2017-05-22T03:46:42.391Z,10.20
2017-05-22T03:49:09.538Z,10.10
2017-05-22T03:51:36.675Z,10.20
2017-05-22T03:54:03.888Z,10.20
2017-05-22T03:56:31.081Z,10.30
2017-05-22T03:58:58.239Z,10.40
2017-05-22T04:01:25.456Z,10.40
2017-05-22T04:03:52.619Z,10.40
2017-05-22T04:06:19.803Z,10.50
2017-05-22T04:08:46.964Z,10.60
2017-05-22T04:11:14.104Z,10.70
2017-05-22T04:13:41.255Z,10.80
2017-05-22T04:16:08.453Z,10.90
2017-05-22T04:18:35.646Z,11.00
2017-05-22T04:21:03.017Z,11.20
2017-05-22T04:23:30.219Z,11.30
2017-05-22T04:25:57.409Z,11.30
2017-05-22T04:28:24.676Z,11.40
2017-05-22T04:30:51.877Z,11.60
2017-05-22T04:33:19.067Z,11.70
2017-05-22T04:35:46.332Z,11.90
2017-05-22T04:38:13.527Z,11.90
2017-05-22T04:40:41.387Z,12.20
2017-05-22T04:43:08.553Z,12.40
2017-05-22T04:45:35.751Z,12.60
2017-05-22T04:48:02.941Z,12.80
2017-05-22T04:50:30.131Z,13.00
2017-05-22T04:52:57.351Z,13.10
2017-05-22T04:55:24.519Z,13.20
2017-05-22T04:57:51.674Z,13.20
2017-05-22T05:00:18.847Z,13.30
2017-05-22T05:02:46.048Z,13.50
2017-05-22T05:05:13.226Z,13.50
2017-05-22T05:07:40.392Z,13.50
2017-05-22T05:10:07.547Z,13.70
2017-05-22T05:12:34.909Z,13.80
2017-05-22T05:15:02.126Z,14.00
2017-05-22T05:17:29.304Z,14.10
2017-05-22T05:19:56.700Z,14.20
2017-05-22T05:22:23.893Z,14.40
2017-05-22T05:24:51.115Z,14.40
2017-05-22T05:27:18.284Z,14.60
2017-05-22T05:29:45.459Z,14.50
2017-05-22T05:32:12.664Z,14.60
2017-05-22T05:34:39.851Z,14.70
2017-05-22T05:37:06.984Z,14.90
2017-05-22T05:39:34.125Z,14.90
2017-05-22T05:42:01.338Z,14.80
2017-05-22T05:44:28.531Z,14.80
2017-05-22T05:46:55.692Z,15.00
2017-05-22T05:49:22.893Z,15.20
2017-05-22T05:51:50.062Z,15.50
2017-05-22T05:54:17.264Z,15.80
2017-05-22T05:56:44.537Z,16.00
2017-05-22T05:59:11.693Z,16.20
2017-05-22T06:01:39.049Z,16.60
2017-05-22T06:04:06.399Z,16.80
2017-05-22T06:06:33.605Z,16.90
2017-05-22T06:09:00.767Z,16.90
2017-05-22T06:11:27.951Z,16.80
2017-05-22T06:13:55.213Z,17.00
2017-05-22T06:16:22.417Z,17.30
2017-05-22T06:18:49.615Z,17.30
2017-05-22T06:23:50.936Z,17.20
2017-05-22T06:26:18.762Z,17.30
2017-05-22T06:28:46.031Z,17.40
2017-05-22T06:31:13.219Z,17.00
2017-05-22T06:33:40.517Z,17.10
2017-05-22T06:36:07.814Z,17.30
2017-05-22T06:38:35.153Z,17.70
2017-05-22T06:41:02.387Z,17.30
2017-05-22T06:43:29.548Z,16.80
2017-05-22T06:45:56.703Z,16.60
2017-05-22T06:48:24.000Z,16.60
2017-05-22T06:50:51.148Z,16.90
2017-05-22T06:53:18.280Z,17.30
2017-05-22T06:55:45.509Z,16.80
2017-05-22T06:58:12.712Z,16.80
2017-05-22T07:00:39.908Z,17.50
2017-05-22T07:03:07.147Z,17.30
2017-05-22T07:05:34.288Z,17.00
2017-05-22T07:08:01.522Z,17.00
2017-05-22T07:10:28.724Z,16.50
2017-05-22T07:12:55.872Z,16.30
2017-05-22T07:15:23.132Z,16.20
2017-05-22T07:17:50.307Z,16.60
2017-05-22T07:20:24.568Z,17.60
2017-05-22T07:22:51.755Z,18.10
2017-05-22T07:25:18.908Z,18.60
2017-05-22T07:27:46.137Z,18.80
2017-05-22T07:30:13.311Z,19.20
2017-05-22T07:32:40.657Z,18.70
2017-05-22T07:35:07.860Z,17.90
2017-05-22T07:37:35.038Z,18.00
2017-05-22T07:40:02.191Z,19.00
2017-05-22T07:42:29.383Z,18.60
2017-05-22T07:44:56.536Z,18.40
2017-05-22T07:47:23.712Z,18.70
2017-05-22T07:49:50.915Z,18.90
2017-05-22T07:52:18.068Z,18.50
2017-05-22T07:54:45.235Z,19.70
2017-05-22T07:57:12.469Z,20.90
2017-05-22T07:59:39.642Z,20.80
2017-05-22T08:02:07.009Z,20.60
2017-05-22T08:04:34.356Z,19.50
2017-05-22T08:07:01.521Z,19.60
2017-05-22T08:09:28.663Z,20.20
2017-05-22T08:11:55.850Z,20.90
2017-05-22T08:14:22.994Z,21.60
2017-05-22T08:16:50.191Z,19.70
2017-05-22T08:19:17.380Z,19.10
2017-05-22T08:21:44.574Z,19.60
2017-05-22T08:24:11.796Z,19.20
2017-05-22T08:26:39.008Z,19.00
2017-05-22T08:29:06.192Z,19.30
2017-05-22T08:31:33.355Z,19.00
2017-05-22T08:34:00.556Z,18.50
2017-05-22T08:36:27.708Z,18.50
2017-05-22T08:38:54.885Z,18.80
2017-05-22T08:41:22.111Z,18.80
2017-05-22T08:43:49.291Z,19.30
2017-05-22T08:46:16.443Z,19.30
2017-05-22T08:48:43.632Z,19.40
2017-05-22T08:51:10.879Z,19.10
2017-05-22T08:53:38.091Z,19.50
2017-05-22T08:56:05.459Z,19.40
2017-05-22T08:58:32.595Z,19.10
2017-05-22T09:00:59.809Z,19.50
2017-05-22T09:03:27.060Z,20.10
2017-05-22T09:05:54.237Z,21.00
2017-05-22T09:08:21.461Z,20.50
2017-05-22T09:10:48.793Z,19.80
2017-05-22T09:13:15.932Z,19.50
2017-05-22T09:15:43.106Z,20.10
2017-05-22T09:18:10.308Z,20.00
2017-05-22T09:20:37.519Z,19.60
2017-05-22T09:23:04.828Z,20.60
2017-05-22T09:25:31.975Z,21.40
2017-05-22T09:27:59.124Z,22.20
2017-05-22T09:30:26.363Z,21.50
2017-05-22T09:32:53.553Z,21.40
2017-05-22T09:35:20.719Z,21.60
2017-05-22T09:37:48.009Z,21.40
2017-05-22T09:40:15.202Z,20.70
2017-05-22T09:42:42.341Z,20.30
2017-05-22T09:45:10.220Z,20.70
2017-05-22T09:47:37.368Z,21.00
2017-05-22T09:50:04.716Z,21.30
2017-05-22T09:52:31.887Z,21.10
2017-05-22T09:54:59.069Z,20.70
2017-05-22T09:57:26.260Z,20.90
2017-05-22T09:59:53.423Z,21.50
2017-05-22T10:02:20.613Z,21.60
2017-05-22T10:04:47.820Z,22.20
2017-05-22T10:07:15.049Z,22.90
2017-05-22T10:09:42.262Z,22.10
2017-05-22T10:12:09.500Z,21.60
2017-05-22T10:14:36.759Z,21.00
2017-05-22T10:17:04.099Z,20.60
2017-05-22T10:19:31.474Z,20.80
2017-05-22T10:21:58.853Z,21.00
2017-05-22T10:24:26.181Z,20.90
2017-05-22T10:26:53.391Z,21.20
2017-05-22T10:29:20.656Z,21.60
2017-05-22T10:31:47.901Z,21.60
2017-05-22T10:34:15.108Z,20.90
2017-05-22T10:36:42.235Z,20.50
2017-05-22T10:39:09.431Z,21.00
2017-05-22T10:41:36.756Z,21.60
2017-05-22T10:44:03.945Z,22.60
2017-05-22T10:46:31.333Z,23.80
2017-05-22T10:48:58.519Z,23.70
2017-05-22T10:51:25.678Z,22.50
2017-05-22T10:53:52.891Z,21.80
2017-05-22T10:56:20.087Z,21.10
2017-05-22T10:58:47.271Z,21.00
2017-05-22T11:01:14.752Z,20.90
2017-05-22T11:03:41.990Z,21.30
2017-05-22T11:06:09.287Z,21.40
2017-05-22T11:08:36.485Z,20.60
2017-05-22T11:11:03.700Z,20.40
2017-05-22T11:13:30.876Z,20.60
2017-05-22T11:15:58.141Z,20.80
2017-05-22T11:18:25.421Z,20.70
2017-05-22T11:20:52.668Z,20.70
2017-05-22T11:23:19.252Z,20.70
2017-05-22T11:25:46.757Z,20.60
2017-05-22T11:28:14.118Z,21.00
2017-05-22T11:30:41.435Z,20.90
2017-05-22T11:33:08.688Z,21.50
2017-05-22T11:35:35.882Z,21.60
2017-05-22T11:38:04.063Z,22.40
2017-05-22T11:40:31.360Z,22.70
2017-05-22T11:42:58.558Z,22.50
2017-05-22T11:45:25.779Z,21.90
2017-05-22T11:47:53.036Z,22.00
2017-05-22T11:50:20.266Z,22.40
2017-05-22T11:52:47.487Z,22.50
2017-05-22T11:55:14.795Z,22.00
2017-05-22T11:57:41.972Z,21.50
2017-05-22T12:00:09.161Z,22.40
2017-05-22T12:02:36.471Z,23.10
2017-05-22T12:05:03.704Z,23.30
2017-05-22T12:07:30.914Z,22.70
2017-05-22T12:09:58.168Z,22.40
2017-05-22T12:12:25.357Z,22.10
2017-05-22T12:14:53.108Z,22.60
2017-05-22T12:17:20.332Z,22.80
2017-05-22T12:19:47.523Z,23.00
2017-05-22T12:22:14.744Z,23.70
2017-05-22T12:24:42.503Z,24.30
2017-05-22T12:27:09.711Z,24.20
2017-05-22T12:29:36.949Z,24.20
2017-05-22T12:32:04.160Z,24.10
2017-05-22T12:34:31.351Z,23.90
2017-05-22T12:36:58.612Z,22.90
2017-05-22T12:39:25.879Z,22.80
2017-05-22T12:41:53.064Z,23.10
2017-05-22T12:44:20.248Z,23.20
2017-05-22T12:46:47.475Z,23.20
2017-05-22T12:49:14.850Z,23.80
2017-05-22T12:51:42.063Z,25.10
2017-05-22T12:54:09.303Z,26.30
2017-05-22T12:56:36.476Z,27.30
2017-05-22T12:59:03.660Z,27.90
2017-05-22T13:01:30.933Z,26.70
2017-05-22T13:03:58.116Z,26.50
2017-05-22T13:06:25.289Z,27.50
2017-05-22T13:08:52.534Z,26.00
2017-05-22T13:11:19.697Z,25.50
2017-05-22T13:13:46.859Z,25.60
2017-05-22T13:16:14.046Z,27.90
2017-05-22T13:18:41.257Z,30.60
2017-05-22T13:21:08.575Z,31.50
2017-05-22T13:23:35.846Z,28.40
2017-05-22T13:26:02.994Z,26.90
2017-05-22T13:28:30.183Z,27.40
2017-05-22T13:30:57.436Z,27.30
2017-05-22T13:33:24.692Z,27.50
2017-05-22T13:35:51.917Z,29.40
2017-05-22T13:38:19.249Z,29.70
2017-05-22T13:40:46.471Z,31.30
2017-05-22T13:43:13.624Z,30.10
2017-05-22T13:45:40.979Z,29.10
2017-05-22T13:50:42.048Z,30.00
2017-05-22T13:53:09.231Z,31.00
2017-05-22T13:55:36.480Z,32.60
2017-05-22T13:58:03.669Z,33.30
2017-05-22T14:00:30.938Z,34.10
2017-05-22T14:02:58.093Z,33.60
2017-05-22T14:05:25.377Z,34.40
2017-05-22T14:07:52.524Z,32.80
2017-05-22T14:10:19.725Z,33.50
2017-05-22T14:12:47.045Z,33.00
2017-05-22T14:15:14.240Z,33.00
2017-05-22T14:17:41.421Z,32.40
2017-05-22T14:20:08.671Z,31.70
2017-05-22T14:22:35.829Z,31.80
2017-05-22T14:25:03.011Z,31.90
2017-05-22T14:27:30.216Z,30.80
2017-05-22T14:29:57.376Z,30.90
2017-05-22T14:32:24.743Z,30.20
2017-05-22T14:34:51.933Z,28.40
2017-05-22T14:37:19.132Z,26.90
2017-05-22T14:39:46.444Z,26.10
2017-05-22T14:42:13.711Z,26.00
2017-05-22T14:44:40.909Z,26.10
2017-05-22T14:47:08.245Z,26.20
2017-05-22T14:49:35.447Z,26.50
2017-05-22T14:52:02.660Z,26.10
2017-05-22T14:54:29.888Z,26.00
2017-05-22T14:56:57.081Z,25.90
2017-05-22T14:59:24.229Z,25.80
2017-05-22T15:01:51.375Z,26.00
2017-05-22T15:04:18.611Z,26.80
2017-05-22T15:06:45.761Z,28.10
2017-05-22T15:09:12.958Z,28.70
2017-05-22T15:11:40.144Z,28.20
2017-05-22T15:14:07.328Z,28.00
2017-05-22T15:16:34.531Z,27.10
2017-05-22T15:19:01.707Z,26.10
2017-05-22T15:21:28.919Z,25.70
2017-05-22T15:23:56.254Z,26.90
2017-05-22T15:26:23.388Z,28.80
2017-05-22T15:28:50.537Z,29.90
2017-05-22T15:31:17.772Z,30.80
2017-05-22T15:33:44.976Z,30.90
2017-05-22T15:36:12.111Z,31.10
2017-05-22T15:38:39.311Z,30.50
2017-05-22T15:41:06.488Z,29.90
2017-05-22T15:43:33.688Z,29.90
2017-05-22T15:46:00.945Z,29.10
2017-05-22T15:48:28.128Z,28.90
2017-05-22T15:50:55.311Z,28.70
2017-05-22T15:53:22.528Z,27.90
2017-05-22T15:55:49.691Z,27.30
2017-05-22T15:58:16.987Z,26.80
2017-05-22T16:00:44.225Z,26.30
2017-05-22T16:03:11.404Z,26.00
2017-05-22T16:05:38.577Z,25.30
2017-05-22T16:08:05.799Z,25.30
2017-05-22T16:10:32.979Z,24.60
2017-05-22T16:13:00.270Z,24.50
2017-05-22T16:15:27.474Z,24.70
2017-05-22T16:17:54.765Z,24.80
2017-05-22T16:20:21.971Z,24.90
2017-05-22T16:22:49.196Z,24.70
2017-05-22T16:25:16.355Z,24.50
2017-05-22T16:27:43.616Z,24.60
2017-05-22T16:30:10.806Z,24.40
2017-05-22T16:32:38.000Z,24.10
2017-05-22T16:35:05.173Z,23.90
2017-05-22T16:37:32.305Z,23.80
2017-05-22T16:39:59.457Z,23.80
2017-05-22T16:42:26.688Z,23.50
2017-05-22T16:44:53.888Z,23.20
2017-05-22T16:47:21.041Z,23.00
2017-05-22T16:49:48.229Z,22.80
2017-05-22T16:52:15.452Z,22.80
2017-05-22T16:54:42.631Z,22.60
2017-05-22T16:57:09.789Z,22.30
2017-05-22T16:59:37.069Z,22.40
2017-05-22T17:02:04.229Z,22.40
2017-05-22T17:04:31.485Z,22.50
2017-05-22T17:06:58.743Z,22.40
2017-05-22T17:09:26.863Z,22.50
2017-05-22T17:11:54.086Z,22.50
2017-05-22T17:14:21.342Z,22.50
2017-05-22T17:16:48.651Z,22.40
2017-05-22T17:19:15.812Z,22.30
2017-05-22T17:21:43.013Z,22.20
2017-05-22T17:24:10.156Z,22.10
2017-05-22T17:26:37.311Z,22.00
2017-05-22T17:29:04.528Z,22.00
2017-05-22T17:31:31.731Z,21.90
2017-05-22T17:33:58.983Z,21.80
2017-05-22T17:36:26.164Z,21.80
2017-05-22T17:38:53.770Z,21.70
2017-05-22T17:41:27.957Z,21.60
2017-05-22T17:43:55.146Z,21.50
2017-05-22T17:46:22.365Z,21.40
2017-05-22T17:48:49.859Z,21.40
2017-05-22T17:51:17.108Z,21.30
2017-05-22T17:53:44.598Z,21.30
2017-05-22T17:56:11.868Z,21.10
2017-05-22T17:58:41.196Z,21.00
2017-05-22T18:01:08.412Z,21.00
2017-05-22T18:03:35.700Z,21.00
2017-05-22T18:06:02.844Z,21.00
2017-05-22T18:11:21.415Z,20.80
2017-05-22T18:13:48.624Z,20.70
2017-05-22T18:16:15.841Z,20.70
2017-05-22T18:18:43.128Z,20.70
2017-05-22T18:21:10.324Z,20.60
2017-05-22T18:23:37.623Z,20.50
2017-05-22T18:26:04.924Z,20.40
2017-05-22T18:28:32.100Z,20.30
2017-05-22T18:30:59.421Z,20.20
2017-05-22T18:33:26.780Z,20.00
2017-05-22T18:35:54.078Z,20.00
2017-05-22T18:38:21.294Z,19.80
2017-05-22T18:40:49.188Z,19.70
2017-05-22T18:43:16.419Z,19.60
2017-05-22T18:45:43.616Z,19.50
2017-05-22T18:48:10.934Z,19.40
2017-05-22T18:50:38.155Z,19.40
2017-05-22T18:53:05.337Z,19.20
2017-05-22T18:55:32.632Z,19.10
2017-05-22T18:57:59.809Z,19.00
2017-05-22T19:00:27.138Z,18.90
2017-05-22T19:02:54.468Z,18.80
2017-05-22T19:05:21.735Z,18.70
2017-05-22T19:07:49.119Z,18.60
2017-05-22T19:10:16.468Z,18.60
2017-05-22T19:12:43.677Z,18.50
2017-05-22T19:15:11.041Z,18.30
2017-05-22T19:17:38.272Z,18.30
2017-05-22T19:20:05.481Z,18.00
2017-05-22T19:22:32.776Z,17.70
2017-05-22T19:24:59.993Z,17.60
2017-05-22T19:27:27.322Z,17.60
2017-05-22T19:29:54.620Z,17.50
2017-05-22T19:32:21.973Z,17.50
2017-05-22T19:34:49.402Z,17.30
2017-05-22T19:37:16.647Z,17.10
2017-05-22T19:39:43.858Z,17.10
2017-05-22T19:42:11.172Z,17.00
2017-05-22T19:44:38.464Z,16.90
2017-05-22T19:47:05.692Z,16.80
2017-05-22T19:49:33.021Z,16.80
2017-05-22T19:52:07.436Z,16.80
2017-05-22T19:54:34.633Z,16.60
2017-05-22T19:57:01.848Z,16.40
2017-05-22T19:59:30.691Z,16.30
2017-05-22T20:01:58.111Z,16.30
2017-05-22T20:04:25.383Z,16.10
2017-05-22T20:06:52.695Z,16.00
2017-05-22T20:09:19.890Z,15.90
2017-05-22T20:11:47.646Z,15.80
2017-05-22T20:14:15.023Z,15.80
2017-05-22T20:16:42.405Z,15.70
2017-05-22T20:19:09.683Z,15.60
2017-05-22T20:21:36.925Z,15.40
2017-05-22T20:24:04.141Z,15.30
2017-05-22T20:26:31.564Z,15.30
2017-05-22T20:28:58.927Z,15.20
2017-05-22T20:31:26.147Z,15.10
2017-05-22T20:33:53.476Z,15.10
2017-05-22T20:36:20.644Z,14.90
2017-05-22T20:38:48.494Z,14.90
2017-05-22T20:41:15.869Z,14.60
2017-05-22T20:43:43.059Z,14.50
2017-05-22T20:46:10.341Z,14.50
2017-05-22T20:48:37.548Z,14.50
2017-05-22T20:51:04.767Z,14.40
2017-05-22T20:53:32.038Z,14.40
2017-05-22T20:55:59.297Z,14.30
2017-05-22T20:58:26.835Z,14.20
2017-05-22T21:00:54.128Z,14.00
2017-05-22T21:03:34.549Z,14.00
2017-05-22T21:06:01.832Z,14.00
2017-05-22T21:08:29.057Z,14.00
2017-05-22T21:10:56.308Z,13.90
2017-05-22T21:13:23.543Z,13.80
2017-05-22T21:15:50.756Z,13.70
2017-05-22T21:18:17.928Z,13.70
2017-05-22T21:20:45.166Z,13.70
2017-05-22T21:23:12.339Z,13.60
2017-05-22T21:25:39.587Z,13.40
2017-05-22T21:28:06.957Z,13.40
2017-05-22T21:30:34.161Z,13.40
2017-05-22T21:33:01.351Z,13.40
2017-05-22T21:35:28.643Z,13.30
2017-05-22T21:37:55.901Z,13.20
2017-05-22T21:40:23.139Z,13.10
2017-05-22T21:42:50.433Z,13.00
2017-05-22T21:45:17.613Z,13.00
2017-05-22T21:47:44.883Z,12.90
2017-05-22T21:50:12.158Z,12.90
2017-05-22T21:52:39.341Z,12.80
2017-05-22T21:55:06.569Z,12.70
2017-05-22T21:57:33.785Z,12.60
2017-05-22T22:00:01.007Z,12.50
2017-05-22T22:02:28.227Z,12.50
2017-05-22T22:04:55.592Z,12.50
2017-05-22T22:07:22.848Z,12.50
2017-05-22T22:09:50.363Z,12.50
2017-05-22T22:12:18.128Z,12.30
2017-05-22T22:14:45.645Z,12.30
2017-05-22T22:17:12.930Z,12.20
2017-05-22T22:19:40.604Z,12.10
2017-05-22T22:22:07.996Z,12.10
2017-05-22T22:24:35.479Z,12.00
2017-05-22T22:27:02.872Z,11.90
2017-05-22T22:29:29.454Z,11.90
2017-05-22T22:31:56.781Z,12.00
2017-05-22T22:34:23.499Z,12.00
2017-05-22T22:36:50.791Z,11.80
2017-05-22T22:39:18.191Z,11.60
2017-05-22T22:41:44.895Z,11.60
2017-05-22T22:44:11.446Z,11.50
2017-05-22T22:46:38.894Z,11.50
2017-05-22T22:49:06.244Z,11.50
2017-05-22T22:51:32.922Z,11.50
2017-05-22T22:54:00.329Z,11.50
2017-05-22T22:56:27.755Z,11.40
2017-05-22T22:58:54.365Z,11.40
2017-05-22T23:01:21.846Z,11.40
2017-05-22T23:03:49.216Z,11.40
2017-05-22T23:06:16.428Z,11.40
2017-05-22T23:08:43.620Z,11.30
2017-05-22T23:11:10.891Z,11.30
2017-05-22T23:13:38.060Z,11.30
2017-05-22T23:16:05.211Z,11.20
2017-05-22T23:18:32.413Z,11.20
2017-05-22T23:20:59.600Z,11.10
2017-05-22T23:23:26.907Z,11.00
2017-05-22T23:25:54.172Z,11.00
2017-05-22T23:28:20.625Z,11.00
2017-05-22T23:30:47.195Z,11.00
2017-05-22T23:33:14.490Z,11.00
2017-05-22T23:35:41.747Z,10.80
2017-05-22T23:38:08.940Z,10.80
2017-05-22T23:40:36.312Z,10.80
2017-05-22T23:43:03.516Z,10.80
2017-05-22T23:45:29.947Z,10.80
2017-05-22T23:47:57.156Z,10.70
2017-05-22T23:50:24.359Z,10.60
2017-05-22T23:52:51.536Z,10.70
2017-05-22T23:55:18.784Z,10.60
2017-05-22T23:57:45.960Z,10.70
